sensor_id;sensor_type;location;lat;lon;timestamp;P1;durP1;ratioP1;P2;durP2;ratioP2
84027;SDS011;74111;45.650;25.612;2024-01-15T00:00:08;9.10;;;4.40;;
84027;SDS011;74111;45.650;25.612;2024-01-15T00:02:39;7.40;;;3.80;;
84027;SDS011;74111;45.650;25.612;2024-01-15T00:05:07;7.50;;;3.50;;
84027;SDS011;74111;45.650;25.612;2024-01-15T00:07:36;7.90;;;4.40;;
84027;SDS011;74111;45.650;25.612;2024-01-15T00:10:04;7.90;;;3.70;;
84027;SDS011;74111;45.650;25.612;2024-01-15T00:12:55;8.60;;;3.50;;
84027;SDS011;74111;45.650;25.612;2024-01-15T00:15:28;7.60;;;3.70;;
84027;SDS011;74111;45.650;25.612;2024-01-15T00:17:58;9.20;;;4.70;;
84027;SDS011;74111;45.650;25.612;2024-01-15T00:20:29;8.30;;;4.10;;
84027;SDS011;74111;45.650;25.612;2024-01-15T00:22:58;11.40;;;7.00;;
84027;SDS011;74111;45.650;25.612;2024-01-15T00:25:26;13.70;;;7.60;;
84027;SDS011;74111;45.650;25.612;2024-01-15T00:27:54;12.90;;;6.80;;
84027;SDS011;74111;45.650;25.612;2024-01-15T00:30:22;11.70;;;6.80;;
84027;SDS011;74111;45.650;25.612;2024-01-15T00:32:51;12.20;;;6.40;;
84027;SDS011;74111;45.650;25.612;2024-01-15T00:35:19;9.30;;;6.20;;
84027;SDS011;74111;45.650;25.612;2024-01-15T00:37:47;10.30;;;5.50;;
84027;SDS011;74111;45.650;25.612;2024-01-15T00:40:15;11.50;;;6.10;;
84027;SDS011;74111;45.650;25.612;2024-01-15T00:42:44;8.50;;;5.00;;
84027;SDS011;74111;45.650;25.612;2024-01-15T00:45:12;10.00;;;5.30;;
84027;SDS011;74111;45.650;25.612;2024-01-15T00:47:40;9.50;;;5.30;;
84027;SDS011;74111;45.650;25.612;2024-01-15T00:50:08;10.20;;;4.70;;
84027;SDS011;74111;45.650;25.612;2024-01-15T00:52:37;7.50;;;4.30;;
84027;SDS011;74111;45.650;25.612;2024-01-15T00:55:05;7.30;;;3.70;;
84027;SDS011;74111;45.650;25.612;2024-01-15T00:57:34;8.60;;;4.60;;
84027;SDS011;74111;45.650;25.612;2024-01-15T01:00:02;7.60;;;3.60;;
84027;SDS011;74111;45.650;25.612;2024-01-15T01:02:33;8.70;;;4.20;;
84027;SDS011;74111;45.650;25.612;2024-01-15T01:05:02;4.80;;;3.40;;
84027;SDS011;74111;45.650;25.612;2024-01-15T01:07:31;7.90;;;4.20;;
84027;SDS011;74111;45.650;25.612;2024-01-15T01:09:59;5.30;;;3.70;;
84027;SDS011;74111;45.650;25.612;2024-01-15T01:12:27;8.30;;;3.80;;
84027;SDS011;74111;45.650;25.612;2024-01-15T01:14:57;9.90;;;4.80;;
84027;SDS011;74111;45.650;25.612;2024-01-15T01:17:27;9.20;;;4.20;;
84027;SDS011;74111;45.650;25.612;2024-01-15T01:22:24;9.30;;;3.80;;
84027;SDS011;74111;45.650;25.612;2024-01-15T01:24:52;6.60;;;3.70;;
84027;SDS011;74111;45.650;25.612;2024-01-15T01:27:21;7.60;;;4.10;;
84027;SDS011;74111;45.650;25.612;2024-01-15T01:29:49;7.40;;;3.80;;
84027;SDS011;74111;45.650;25.612;2024-01-15T01:32:18;6.90;;;4.30;;
84027;SDS011;74111;45.650;25.612;2024-01-15T01:34:47;7.50;;;3.80;;
84027;SDS011;74111;45.650;25.612;2024-01-15T01:37:15;7.60;;;3.80;;
84027;SDS011;74111;45.650;25.612;2024-01-15T01:39:43;8.10;;;3.90;;
84027;SDS011;74111;45.650;25.612;2024-01-15T01:42:12;8.00;;;3.70;;
84027;SDS011;74111;45.650;25.612;2024-01-15T01:44:40;6.10;;;3.10;;
84027;SDS011;74111;45.650;25.612;2024-01-15T01:47:09;9.40;;;5.60;;
84027;SDS011;74111;45.650;25.612;2024-01-15T01:49:37;12.20;;;5.90;;
84027;SDS011;74111;45.650;25.612;2024-01-15T01:52:06;12.50;;;6.50;;
84027;SDS011;74111;45.650;25.612;2024-01-15T01:54:37;10.20;;;5.50;;
84027;SDS011;74111;45.650;25.612;2024-01-15T01:57:08;6.90;;;4.20;;
84027;SDS011;74111;45.650;25.612;2024-01-15T01:59:37;9.80;;;5.20;;
84027;SDS011;74111;45.650;25.612;2024-01-15T02:02:07;8.10;;;4.30;;
84027;SDS011;74111;45.650;25.612;2024-01-15T02:04:35;10.20;;;5.50;;
84027;SDS011;74111;45.650;25.612;2024-01-15T02:07:04;8.40;;;5.60;;
84027;SDS011;74111;45.650;25.612;2024-01-15T02:09:33;11.70;;;5.30;;
84027;SDS011;74111;45.650;25.612;2024-01-15T02:12:01;9.90;;;4.20;;
84027;SDS011;74111;45.650;25.612;2024-01-15T02:14:30;8.80;;;5.20;;
84027;SDS011;74111;45.650;25.612;2024-01-15T02:16:58;9.80;;;5.40;;
84027;SDS011;74111;45.650;25.612;2024-01-15T02:19:26;11.20;;;5.20;;
84027;SDS011;74111;45.650;25.612;2024-01-15T02:21:55;7.40;;;3.80;;
84027;SDS011;74111;45.650;25.612;2024-01-15T02:24:23;8.40;;;5.10;;
84027;SDS011;74111;45.650;25.612;2024-01-15T02:26:51;7.20;;;4.20;;
84027;SDS011;74111;45.650;25.612;2024-01-15T02:29:20;9.10;;;5.00;;
84027;SDS011;74111;45.650;25.612;2024-01-15T02:31:48;8.60;;;4.60;;
84027;SDS011;74111;45.650;25.612;2024-01-15T02:34:16;7.40;;;4.50;;
84027;SDS011;74111;45.650;25.612;2024-01-15T02:36:45;7.90;;;3.50;;
84027;SDS011;74111;45.650;25.612;2024-01-15T02:39:13;7.70;;;3.60;;
84027;SDS011;74111;45.650;25.612;2024-01-15T02:41:41;7.00;;;4.20;;
84027;SDS011;74111;45.650;25.612;2024-01-15T02:44:09;10.10;;;4.60;;
84027;SDS011;74111;45.650;25.612;2024-01-15T02:46:38;10.40;;;4.20;;
84027;SDS011;74111;45.650;25.612;2024-01-15T02:49:06;7.50;;;3.80;;
84027;SDS011;74111;45.650;25.612;2024-01-15T02:51:34;9.00;;;3.60;;
84027;SDS011;74111;45.650;25.612;2024-01-15T02:54:03;7.90;;;4.60;;
84027;SDS011;74111;45.650;25.612;2024-01-15T02:56:31;9.00;;;4.10;;
84027;SDS011;74111;45.650;25.612;2024-01-15T02:58:59;6.90;;;3.60;;
84027;SDS011;74111;45.650;25.612;2024-01-15T03:01:27;9.20;;;4.40;;
84027;SDS011;74111;45.650;25.612;2024-01-15T03:03:56;7.90;;;4.50;;
84027;SDS011;74111;45.650;25.612;2024-01-15T03:06:25;13.30;;;7.00;;
84027;SDS011;74111;45.650;25.612;2024-01-15T03:08:53;11.40;;;6.10;;
84027;SDS011;74111;45.650;25.612;2024-01-15T03:11:21;10.70;;;5.70;;
84027;SDS011;74111;45.650;25.612;2024-01-15T03:13:50;8.40;;;5.30;;
84027;SDS011;74111;45.650;25.612;2024-01-15T03:16:18;7.80;;;4.80;;
84027;SDS011;74111;45.650;25.612;2024-01-15T03:18:47;9.20;;;5.60;;
84027;SDS011;74111;45.650;25.612;2024-01-15T03:21:16;7.00;;;4.70;;
84027;SDS011;74111;45.650;25.612;2024-01-15T03:23:44;9.40;;;4.50;;
84027;SDS011;74111;45.650;25.612;2024-01-15T03:26:12;7.20;;;4.40;;
84027;SDS011;74111;45.650;25.612;2024-01-15T03:28:40;8.50;;;4.50;;
84027;SDS011;74111;45.650;25.612;2024-01-15T03:31:09;6.60;;;4.20;;
84027;SDS011;74111;45.650;25.612;2024-01-15T03:33:37;9.50;;;3.70;;
84027;SDS011;74111;45.650;25.612;2024-01-15T03:36:06;7.20;;;3.70;;
84027;SDS011;74111;45.650;25.612;2024-01-15T03:38:35;8.10;;;3.50;;
84027;SDS011;74111;45.650;25.612;2024-01-15T03:41:09;9.70;;;4.20;;
84027;SDS011;74111;45.650;25.612;2024-01-15T03:43:37;7.60;;;3.80;;
84027;SDS011;74111;45.650;25.612;2024-01-15T03:46:06;8.40;;;4.30;;
84027;SDS011;74111;45.650;25.612;2024-01-15T03:51:03;6.80;;;3.10;;
84027;SDS011;74111;45.650;25.612;2024-01-15T03:53:32;12.90;;;5.40;;
84027;SDS011;74111;45.650;25.612;2024-01-15T03:56:00;8.50;;;4.80;;
84027;SDS011;74111;45.650;25.612;2024-01-15T03:58:28;9.10;;;3.90;;
84027;SDS011;74111;45.650;25.612;2024-01-15T04:00:56;8.80;;;4.40;;
84027;SDS011;74111;45.650;25.612;2024-01-15T04:03:24;10.50;;;4.30;;
84027;SDS011;74111;45.650;25.612;2024-01-15T04:05:53;9.10;;;4.30;;
84027;SDS011;74111;45.650;25.612;2024-01-15T04:08:21;11.30;;;5.00;;
84027;SDS011;74111;45.650;25.612;2024-01-15T04:10:49;8.30;;;4.60;;
84027;SDS011;74111;45.650;25.612;2024-01-15T04:13:17;7.80;;;4.60;;
84027;SDS011;74111;45.650;25.612;2024-01-15T04:15:45;10.90;;;4.60;;
84027;SDS011;74111;45.650;25.612;2024-01-15T04:18:15;9.60;;;5.10;;
84027;SDS011;74111;45.650;25.612;2024-01-15T04:20:44;9.40;;;5.40;;
84027;SDS011;74111;45.650;25.612;2024-01-15T04:23:12;11.80;;;5.10;;
84027;SDS011;74111;45.650;25.612;2024-01-15T04:25:43;9.80;;;5.40;;
84027;SDS011;74111;45.650;25.612;2024-01-15T04:28:12;10.50;;;5.90;;
84027;SDS011;74111;45.650;25.612;2024-01-15T04:30:40;16.40;;;9.00;;
84027;SDS011;74111;45.650;25.612;2024-01-15T04:33:09;15.80;;;9.20;;
84027;SDS011;74111;45.650;25.612;2024-01-15T04:35:37;19.60;;;9.90;;
84027;SDS011;74111;45.650;25.612;2024-01-15T04:38:06;12.50;;;7.40;;
84027;SDS011;74111;45.650;25.612;2024-01-15T04:40:34;13.60;;;9.10;;
84027;SDS011;74111;45.650;25.612;2024-01-15T04:43:02;17.30;;;9.50;;
84027;SDS011;74111;45.650;25.612;2024-01-15T04:45:30;17.80;;;10.40;;
84027;SDS011;74111;45.650;25.612;2024-01-15T04:47:59;16.60;;;9.10;;
84027;SDS011;74111;45.650;25.612;2024-01-15T04:50:27;17.50;;;8.60;;
84027;SDS011;74111;45.650;25.612;2024-01-15T04:52:55;13.70;;;7.30;;
84027;SDS011;74111;45.650;25.612;2024-01-15T04:55:23;15.70;;;7.90;;
84027;SDS011;74111;45.650;25.612;2024-01-15T04:57:51;12.60;;;7.50;;
84027;SDS011;74111;45.650;25.612;2024-01-15T05:00:20;6.40;;;3.80;;
84027;SDS011;74111;45.650;25.612;2024-01-15T05:02:48;11.10;;;5.50;;
84027;SDS011;74111;45.650;25.612;2024-01-15T05:05:16;20.70;;;8.40;;
84027;SDS011;74111;45.650;25.612;2024-01-15T05:07:44;12.10;;;5.80;;
84027;SDS011;74111;45.650;25.612;2024-01-15T05:10:13;14.20;;;6.40;;
84027;SDS011;74111;45.650;25.612;2024-01-15T05:12:41;17.30;;;8.00;;
84027;SDS011;74111;45.650;25.612;2024-01-15T05:15:09;15.50;;;6.90;;
84027;SDS011;74111;45.650;25.612;2024-01-15T05:17:38;15.40;;;8.00;;
84027;SDS011;74111;45.650;25.612;2024-01-15T05:20:06;13.30;;;7.30;;
84027;SDS011;74111;45.650;25.612;2024-01-15T05:22:35;10.70;;;6.90;;
84027;SDS011;74111;45.650;25.612;2024-01-15T05:25:03;13.90;;;7.20;;
84027;SDS011;74111;45.650;25.612;2024-01-15T05:27:31;20.40;;;8.60;;
84027;SDS011;74111;45.650;25.612;2024-01-15T05:30:00;17.70;;;7.40;;
84027;SDS011;74111;45.650;25.612;2024-01-15T05:32:28;17.10;;;7.40;;
84027;SDS011;74111;45.650;25.612;2024-01-15T05:34:56;18.70;;;10.70;;
84027;SDS011;74111;45.650;25.612;2024-01-15T05:37:24;26.70;;;13.40;;
84027;SDS011;74111;45.650;25.612;2024-01-15T05:39:52;22.60;;;12.50;;
84027;SDS011;74111;45.650;25.612;2024-01-15T05:42:21;23.20;;;10.90;;
84027;SDS011;74111;45.650;25.612;2024-01-15T05:44:49;21.40;;;13.20;;
84027;SDS011;74111;45.650;25.612;2024-01-15T05:47:19;21.90;;;10.90;;
84027;SDS011;74111;45.650;25.612;2024-01-15T05:49:47;18.20;;;10.10;;
84027;SDS011;74111;45.650;25.612;2024-01-15T05:52:16;20.90;;;11.40;;
84027;SDS011;74111;45.650;25.612;2024-01-15T05:54:44;24.30;;;10.20;;
84027;SDS011;74111;45.650;25.612;2024-01-15T05:57:13;17.60;;;9.90;;
84027;SDS011;74111;45.650;25.612;2024-01-15T05:59:41;18.20;;;9.40;;
84027;SDS011;74111;45.650;25.612;2024-01-15T06:02:11;20.00;;;10.10;;
84027;SDS011;74111;45.650;25.612;2024-01-15T06:04:40;14.80;;;8.30;;
84027;SDS011;74111;45.650;25.612;2024-01-15T06:07:08;18.40;;;9.70;;
84027;SDS011;74111;45.650;25.612;2024-01-15T06:09:36;14.50;;;8.40;;
84027;SDS011;74111;45.650;25.612;2024-01-15T06:12:06;20.50;;;8.50;;
84027;SDS011;74111;45.650;25.612;2024-01-15T06:14:35;16.10;;;7.40;;
84027;SDS011;74111;45.650;25.612;2024-01-15T06:17:03;18.40;;;8.00;;
84027;SDS011;74111;45.650;25.612;2024-01-15T06:19:32;17.20;;;7.40;;
84027;SDS011;74111;45.650;25.612;2024-01-15T06:22:00;19.30;;;7.60;;
84027;SDS011;74111;45.650;25.612;2024-01-15T06:24:28;14.80;;;6.40;;
84027;SDS011;74111;45.650;25.612;2024-01-15T06:26:57;13.90;;;8.00;;
84027;SDS011;74111;45.650;25.612;2024-01-15T06:29:25;15.10;;;7.50;;
84027;SDS011;74111;45.650;25.612;2024-01-15T06:31:54;10.90;;;6.00;;
84027;SDS011;74111;45.650;25.612;2024-01-15T06:34:23;11.50;;;6.30;;
84027;SDS011;74111;45.650;25.612;2024-01-15T06:36:51;13.60;;;5.90;;
84027;SDS011;74111;45.650;25.612;2024-01-15T06:39:19;14.80;;;6.30;;
84027;SDS011;74111;45.650;25.612;2024-01-15T06:41:48;9.60;;;5.00;;
84027;SDS011;74111;45.650;25.612;2024-01-15T06:44:16;14.60;;;8.80;;
84027;SDS011;74111;45.650;25.612;2024-01-15T06:46:44;22.70;;;12.00;;
84027;SDS011;74111;45.650;25.612;2024-01-15T06:49:13;19.10;;;10.30;;
84027;SDS011;74111;45.650;25.612;2024-01-15T06:51:41;17.60;;;9.70;;
84027;SDS011;74111;45.650;25.612;2024-01-15T06:54:12;18.30;;;9.60;;
84027;SDS011;74111;45.650;25.612;2024-01-15T06:56:40;17.90;;;11.20;;
84027;SDS011;74111;45.650;25.612;2024-01-15T06:59:08;18.40;;;10.90;;
84027;SDS011;74111;45.650;25.612;2024-01-15T07:01:36;19.50;;;11.00;;
84027;SDS011;74111;45.650;25.612;2024-01-15T07:04:05;17.50;;;8.60;;
84027;SDS011;74111;45.650;25.612;2024-01-15T07:06:33;17.50;;;9.70;;
84027;SDS011;74111;45.650;25.612;2024-01-15T07:09:01;16.20;;;10.30;;
84027;SDS011;74111;45.650;25.612;2024-01-15T07:11:30;13.90;;;6.30;;
84027;SDS011;74111;45.650;25.612;2024-01-15T07:13:58;21.60;;;7.50;;
84027;SDS011;74111;45.650;25.612;2024-01-15T07:16:26;12.70;;;7.30;;
84027;SDS011;74111;45.650;25.612;2024-01-15T07:19:05;19.90;;;10.00;;
84027;SDS011;74111;45.650;25.612;2024-01-15T07:21:34;19.40;;;11.60;;
84027;SDS011;74111;45.650;25.612;2024-01-15T07:24:02;20.40;;;11.90;;
84027;SDS011;74111;45.650;25.612;2024-01-15T07:26:30;24.80;;;13.60;;
84027;SDS011;74111;45.650;25.612;2024-01-15T07:28:59;18.10;;;11.50;;
84027;SDS011;74111;45.650;25.612;2024-01-15T07:31:27;22.50;;;11.20;;
84027;SDS011;74111;45.650;25.612;2024-01-15T07:33:56;22.10;;;12.00;;
84027;SDS011;74111;45.650;25.612;2024-01-15T07:36:24;22.30;;;10.40;;
84027;SDS011;74111;45.650;25.612;2024-01-15T07:38:52;24.60;;;11.80;;
84027;SDS011;74111;45.650;25.612;2024-01-15T07:41:21;20.10;;;10.70;;
84027;SDS011;74111;45.650;25.612;2024-01-15T07:43:49;19.60;;;11.20;;
84027;SDS011;74111;45.650;25.612;2024-01-15T07:46:17;18.50;;;9.50;;
84027;SDS011;74111;45.650;25.612;2024-01-15T07:48:45;19.60;;;10.90;;
84027;SDS011;74111;45.650;25.612;2024-01-15T07:51:13;18.60;;;11.20;;
84027;SDS011;74111;45.650;25.612;2024-01-15T07:53:42;19.30;;;10.90;;
84027;SDS011;74111;45.650;25.612;2024-01-15T07:56:11;14.80;;;8.30;;
84027;SDS011;74111;45.650;25.612;2024-01-15T07:58:39;17.70;;;8.60;;
84027;SDS011;74111;45.650;25.612;2024-01-15T08:01:07;18.90;;;10.10;;
84027;SDS011;74111;45.650;25.612;2024-01-15T08:03:36;16.00;;;9.60;;
84027;SDS011;74111;45.650;25.612;2024-01-15T08:06:05;18.00;;;9.20;;
84027;SDS011;74111;45.650;25.612;2024-01-15T08:08:33;10.90;;;5.00;;
84027;SDS011;74111;45.650;25.612;2024-01-15T08:11:02;18.30;;;9.40;;
84027;SDS011;74111;45.650;25.612;2024-01-15T08:13:30;18.50;;;10.20;;
84027;SDS011;74111;45.650;25.612;2024-01-15T08:15:58;22.40;;;10.20;;
84027;SDS011;74111;45.650;25.612;2024-01-15T08:18:27;20.70;;;10.40;;
84027;SDS011;74111;45.650;25.612;2024-01-15T08:20:55;19.80;;;10.80;;
84027;SDS011;74111;45.650;25.612;2024-01-15T08:23:23;26.30;;;13.30;;
84027;SDS011;74111;45.650;25.612;2024-01-15T08:25:52;20.20;;;10.80;;
84027;SDS011;74111;45.650;25.612;2024-01-15T08:28:20;24.40;;;11.90;;
84027;SDS011;74111;45.650;25.612;2024-01-15T08:30:48;22.30;;;11.20;;
84027;SDS011;74111;45.650;25.612;2024-01-15T08:33:17;16.00;;;9.20;;
84027;SDS011;74111;45.650;25.612;2024-01-15T08:35:49;17.10;;;9.00;;
84027;SDS011;74111;45.650;25.612;2024-01-15T08:38:18;20.90;;;10.70;;
84027;SDS011;74111;45.650;25.612;2024-01-15T08:40:47;24.70;;;13.60;;
84027;SDS011;74111;45.650;25.612;2024-01-15T08:43:17;26.70;;;12.70;;
84027;SDS011;74111;45.650;25.612;2024-01-15T08:45:45;27.70;;;13.40;;
84027;SDS011;74111;45.650;25.612;2024-01-15T08:48:14;21.40;;;13.00;;
84027;SDS011;74111;45.650;25.612;2024-01-15T08:50:42;22.10;;;12.60;;
84027;SDS011;74111;45.650;25.612;2024-01-15T08:53:14;22.90;;;13.70;;
84027;SDS011;74111;45.650;25.612;2024-01-15T08:55:42;22.20;;;13.50;;
84027;SDS011;74111;45.650;25.612;2024-01-15T09:00:40;20.70;;;11.40;;
84027;SDS011;74111;45.650;25.612;2024-01-15T09:03:08;22.20;;;10.50;;
84027;SDS011;74111;45.650;25.612;2024-01-15T09:05:36;12.10;;;7.00;;
84027;SDS011;74111;45.650;25.612;2024-01-15T09:08:05;18.20;;;11.00;;
84027;SDS011;74111;45.650;25.612;2024-01-15T09:10:33;23.80;;;10.40;;
84027;SDS011;74111;45.650;25.612;2024-01-15T09:13:01;16.50;;;10.50;;
84027;SDS011;74111;45.650;25.612;2024-01-15T09:15:31;19.10;;;10.50;;
84027;SDS011;74111;45.650;25.612;2024-01-15T09:18:00;23.90;;;12.40;;
84027;SDS011;74111;45.650;25.612;2024-01-15T09:20:34;19.70;;;11.50;;
84027;SDS011;74111;45.650;25.612;2024-01-15T09:23:04;21.40;;;10.70;;
84027;SDS011;74111;45.650;25.612;2024-01-15T09:25:32;20.30;;;11.20;;
84027;SDS011;74111;45.650;25.612;2024-01-15T09:28:00;27.00;;;12.80;;
84027;SDS011;74111;45.650;25.612;2024-01-15T09:30:28;21.00;;;12.50;;
84027;SDS011;74111;45.650;25.612;2024-01-15T09:32:57;31.50;;;14.10;;
84027;SDS011;74111;45.650;25.612;2024-01-15T09:35:27;24.20;;;13.70;;
84027;SDS011;74111;45.650;25.612;2024-01-15T09:37:55;23.30;;;12.70;;
84027;SDS011;74111;45.650;25.612;2024-01-15T09:40:23;23.10;;;10.80;;
84027;SDS011;74111;45.650;25.612;2024-01-15T09:42:59;25.40;;;12.10;;
84027;SDS011;74111;45.650;25.612;2024-01-15T09:45:28;26.70;;;13.10;;
84027;SDS011;74111;45.650;25.612;2024-01-15T09:47:58;33.30;;;12.30;;
84027;SDS011;74111;45.650;25.612;2024-01-15T09:50:27;36.10;;;13.00;;
84027;SDS011;74111;45.650;25.612;2024-01-15T09:52:55;23.60;;;11.20;;
84027;SDS011;74111;45.650;25.612;2024-01-15T09:55:25;18.00;;;9.50;;
84027;SDS011;74111;45.650;25.612;2024-01-15T10:00:23;21.50;;;10.90;;
84027;SDS011;74111;45.650;25.612;2024-01-15T10:02:53;28.70;;;11.20;;
84027;SDS011;74111;45.650;25.612;2024-01-15T10:05:21;16.40;;;8.00;;
84027;SDS011;74111;45.650;25.612;2024-01-15T10:07:49;20.90;;;9.50;;
84027;SDS011;74111;45.650;25.612;2024-01-15T10:10:20;23.30;;;9.90;;
84027;SDS011;74111;45.650;25.612;2024-01-15T10:12:50;19.40;;;10.20;;
84027;SDS011;74111;45.650;25.612;2024-01-15T10:15:21;22.20;;;10.50;;
84027;SDS011;74111;45.650;25.612;2024-01-15T10:17:51;19.20;;;9.70;;
84027;SDS011;74111;45.650;25.612;2024-01-15T10:20:20;21.30;;;10.10;;
84027;SDS011;74111;45.650;25.612;2024-01-15T10:22:50;16.10;;;8.60;;
84027;SDS011;74111;45.650;25.612;2024-01-15T10:25:18;22.70;;;10.70;;
84027;SDS011;74111;45.650;25.612;2024-01-15T10:27:59;21.90;;;11.10;;
84027;SDS011;74111;45.650;25.612;2024-01-15T10:30:29;19.90;;;10.00;;
84027;SDS011;74111;45.650;25.612;2024-01-15T10:33:01;26.70;;;9.90;;
84027;SDS011;74111;45.650;25.612;2024-01-15T10:35:34;15.30;;;8.50;;
84027;SDS011;74111;45.650;25.612;2024-01-15T10:38:03;21.10;;;9.40;;
84027;SDS011;74111;45.650;25.612;2024-01-15T10:40:33;18.80;;;9.20;;
84027;SDS011;74111;45.650;25.612;2024-01-15T10:43:01;14.70;;;9.10;;
84027;SDS011;74111;45.650;25.612;2024-01-15T10:45:30;22.20;;;10.60;;
84027;SDS011;74111;45.650;25.612;2024-01-15T10:47:59;16.90;;;9.90;;
84027;SDS011;74111;45.650;25.612;2024-01-15T10:50:30;16.70;;;9.50;;
84027;SDS011;74111;45.650;25.612;2024-01-15T10:53:00;12.20;;;6.20;;
84027;SDS011;74111;45.650;25.612;2024-01-15T10:55:30;10.20;;;5.90;;
84027;SDS011;74111;45.650;25.612;2024-01-15T10:58:00;9.20;;;4.10;;
84027;SDS011;74111;45.650;25.612;2024-01-15T11:00:29;6.70;;;4.60;;
84027;SDS011;74111;45.650;25.612;2024-01-15T11:02:58;9.20;;;5.50;;
84027;SDS011;74111;45.650;25.612;2024-01-15T11:08:06;2.60;;;1.80;;
84027;SDS011;74111;45.650;25.612;2024-01-15T11:13:13;3.90;;;2.10;;
84027;SDS011;74111;45.650;25.612;2024-01-15T11:18:48;2.40;;;1.70;;
84027;SDS011;74111;45.650;25.612;2024-01-15T11:21:27;3.70;;;2.10;;
84027;SDS011;74111;45.650;25.612;2024-01-15T11:23:59;3.20;;;1.70;;
84027;SDS011;74111;45.650;25.612;2024-01-15T11:29:10;5.90;;;3.80;;
84027;SDS011;74111;45.650;25.612;2024-01-15T11:31:59;4.10;;;2.40;;
84027;SDS011;74111;45.650;25.612;2024-01-15T11:40:19;5.00;;;2.40;;
84027;SDS011;74111;45.650;25.612;2024-01-15T11:42:49;4.60;;;2.20;;
84027;SDS011;74111;45.650;25.612;2024-01-15T11:45:18;4.50;;;2.20;;
84027;SDS011;74111;45.650;25.612;2024-01-15T11:50:46;5.30;;;2.60;;
84027;SDS011;74111;45.650;25.612;2024-01-15T11:55:49;1.70;;;1.20;;
84027;SDS011;74111;45.650;25.612;2024-01-15T11:58:19;2.50;;;2.00;;
84027;SDS011;74111;45.650;25.612;2024-01-15T12:00:50;2.40;;;1.50;;
84027;SDS011;74111;45.650;25.612;2024-01-15T12:03:21;2.90;;;1.70;;
84027;SDS011;74111;45.650;25.612;2024-01-15T12:05:54;2.40;;;1.80;;
84027;SDS011;74111;45.650;25.612;2024-01-15T12:08:23;1.70;;;1.50;;
84027;SDS011;74111;45.650;25.612;2024-01-15T12:10:53;2.80;;;1.70;;
84027;SDS011;74111;45.650;25.612;2024-01-15T12:13:21;3.40;;;2.20;;
84027;SDS011;74111;45.650;25.612;2024-01-15T12:15:50;2.60;;;1.90;;
84027;SDS011;74111;45.650;25.612;2024-01-15T12:18:18;3.30;;;2.00;;
84027;SDS011;74111;45.650;25.612;2024-01-15T12:20:48;6.30;;;3.40;;
84027;SDS011;74111;45.650;25.612;2024-01-15T12:23:17;6.30;;;2.70;;
84027;SDS011;74111;45.650;25.612;2024-01-15T12:25:46;5.00;;;2.20;;
84027;SDS011;74111;45.650;25.612;2024-01-15T12:28:15;5.00;;;2.30;;
84027;SDS011;74111;45.650;25.612;2024-01-15T12:30:45;5.00;;;2.50;;
84027;SDS011;74111;45.650;25.612;2024-01-15T12:35:49;5.30;;;2.50;;
84027;SDS011;74111;45.650;25.612;2024-01-15T12:38:22;11.00;;;6.60;;
84027;SDS011;74111;45.650;25.612;2024-01-15T12:40:50;4.90;;;2.30;;
84027;SDS011;74111;45.650;25.612;2024-01-15T12:43:19;3.80;;;1.90;;
84027;SDS011;74111;45.650;25.612;2024-01-15T12:45:50;3.30;;;1.70;;
84027;SDS011;74111;45.650;25.612;2024-01-15T12:48:18;2.60;;;1.70;;
84027;SDS011;74111;45.650;25.612;2024-01-15T12:50:47;8.10;;;2.40;;
84027;SDS011;74111;45.650;25.612;2024-01-15T12:53:15;4.20;;;3.00;;
84027;SDS011;74111;45.650;25.612;2024-01-15T12:55:45;3.70;;;2.60;;
84027;SDS011;74111;45.650;25.612;2024-01-15T12:58:14;3.10;;;2.10;;
84027;SDS011;74111;45.650;25.612;2024-01-15T13:00:47;2.30;;;1.40;;
84027;SDS011;74111;45.650;25.612;2024-01-15T13:03:15;3.20;;;2.00;;
84027;SDS011;74111;45.650;25.612;2024-01-15T13:05:44;6.80;;;3.00;;
84027;SDS011;74111;45.650;25.612;2024-01-15T13:10:41;4.70;;;2.70;;
84027;SDS011;74111;45.650;25.612;2024-01-15T13:13:10;2.10;;;1.70;;
84027;SDS011;74111;45.650;25.612;2024-01-15T13:15:38;3.10;;;1.70;;
84027;SDS011;74111;45.650;25.612;2024-01-15T13:18:06;3.00;;;1.40;;
84027;SDS011;74111;45.650;25.612;2024-01-15T13:20:35;6.80;;;1.40;;
84027;SDS011;74111;45.650;25.612;2024-01-15T13:23:03;2.50;;;1.80;;
84027;SDS011;74111;45.650;25.612;2024-01-15T13:25:32;2.60;;;1.40;;
84027;SDS011;74111;45.650;25.612;2024-01-15T13:28:06;3.20;;;1.50;;
84027;SDS011;74111;45.650;25.612;2024-01-15T13:30:53;3.10;;;1.80;;
84027;SDS011;74111;45.650;25.612;2024-01-15T13:33:21;2.90;;;2.00;;
84027;SDS011;74111;45.650;25.612;2024-01-15T13:35:50;4.60;;;2.40;;
84027;SDS011;74111;45.650;25.612;2024-01-15T13:38:18;7.00;;;3.90;;
84027;SDS011;74111;45.650;25.612;2024-01-15T13:40:47;6.50;;;3.10;;
84027;SDS011;74111;45.650;25.612;2024-01-15T13:43:15;3.40;;;1.90;;
84027;SDS011;74111;45.650;25.612;2024-01-15T13:45:50;1.60;;;1.50;;
84027;SDS011;74111;45.650;25.612;2024-01-15T13:48:21;3.40;;;1.90;;
84027;SDS011;74111;45.650;25.612;2024-01-15T13:50:49;2.30;;;1.80;;
84027;SDS011;74111;45.650;25.612;2024-01-15T13:53:18;3.60;;;2.20;;
84027;SDS011;74111;45.650;25.612;2024-01-15T13:55:47;4.70;;;2.30;;
84027;SDS011;74111;45.650;25.612;2024-01-15T13:58:15;2.40;;;1.90;;
84027;SDS011;74111;45.650;25.612;2024-01-15T14:00:45;4.00;;;2.40;;
84027;SDS011;74111;45.650;25.612;2024-01-15T14:03:14;4.80;;;2.50;;
84027;SDS011;74111;45.650;25.612;2024-01-15T14:05:43;2.40;;;2.10;;
84027;SDS011;74111;45.650;25.612;2024-01-15T14:08:11;3.90;;;2.50;;
84027;SDS011;74111;45.650;25.612;2024-01-15T14:10:39;4.10;;;2.90;;
84027;SDS011;74111;45.650;25.612;2024-01-15T14:13:08;3.80;;;2.20;;
84027;SDS011;74111;45.650;25.612;2024-01-15T14:15:36;2.60;;;1.40;;
84027;SDS011;74111;45.650;25.612;2024-01-15T14:18:05;3.10;;;2.10;;
84027;SDS011;74111;45.650;25.612;2024-01-15T14:20:34;4.80;;;3.10;;
84027;SDS011;74111;45.650;25.612;2024-01-15T14:23:02;6.40;;;4.10;;
84027;SDS011;74111;45.650;25.612;2024-01-15T14:25:31;4.20;;;2.50;;
84027;SDS011;74111;45.650;25.612;2024-01-15T14:27:59;3.10;;;1.60;;
84027;SDS011;74111;45.650;25.612;2024-01-15T14:30:27;3.30;;;2.00;;
84027;SDS011;74111;45.650;25.612;2024-01-15T14:32:56;3.50;;;2.10;;
84027;SDS011;74111;45.650;25.612;2024-01-15T14:35:24;2.20;;;1.70;;
84027;SDS011;74111;45.650;25.612;2024-01-15T14:37:52;2.80;;;1.70;;
84027;SDS011;74111;45.650;25.612;2024-01-15T14:40:20;2.60;;;2.00;;
84027;SDS011;74111;45.650;25.612;2024-01-15T14:42:49;3.80;;;2.40;;
84027;SDS011;74111;45.650;25.612;2024-01-15T14:45:17;2.60;;;1.90;;
84027;SDS011;74111;45.650;25.612;2024-01-15T14:47:45;4.00;;;1.90;;
84027;SDS011;74111;45.650;25.612;2024-01-15T14:50:14;4.30;;;2.80;;
84027;SDS011;74111;45.650;25.612;2024-01-15T14:52:42;3.00;;;2.10;;
84027;SDS011;74111;45.650;25.612;2024-01-15T14:55:12;4.00;;;2.10;;
84027;SDS011;74111;45.650;25.612;2024-01-15T14:57:41;3.00;;;2.00;;
84027;SDS011;74111;45.650;25.612;2024-01-15T15:00:10;3.40;;;2.20;;
84027;SDS011;74111;45.650;25.612;2024-01-15T15:02:40;3.50;;;2.00;;
84027;SDS011;74111;45.650;25.612;2024-01-15T15:05:08;5.80;;;2.10;;
84027;SDS011;74111;45.650;25.612;2024-01-15T15:07:38;4.00;;;2.60;;
84027;SDS011;74111;45.650;25.612;2024-01-15T15:10:07;4.40;;;3.30;;
84027;SDS011;74111;45.650;25.612;2024-01-15T15:12:37;7.00;;;4.60;;